Time;durP1;ratioP1;P1;durP2;ratioP2;P2;SDS_P1;SDS_P2;PMS_P1;PMS_P2;Temp;Humidity;BMP_temperature;BMP_pressure;BME280_temperature;BME280_humidity;BME280_pressure;Samples;Min_cycle;Max_cycle;Signal;HPM_P1;HPM_P2
2023/01/21 00:00:55;;;;;;;;;;;;;;;;;;5033750;28;1429;-40
2023/01/21 00:03:23;;;;;;;;;;;;;;;;;;5033377;28;2419;-39
2023/01/21 00:05:51;;;;;;;;;;;;;;;;;;5033372;28;1595;-39
2023/01/21 00:08:18;;;;;;;;;;;;;;;;;;5033452;28;1973;-41
2023/01/21 00:10:45;;;;;;;;;;;;;;;;;;5033379;28;1698;-40
2023/01/21 00:13:12;;;;;;;;;;;;;;;;;;5033366;28;1724;-41
2023/01/21 00:15:39;;;;;;;;;;;;;;;;;;5033124;28;1658;-39
2023/01/21 00:18:07;;;;;;;;;;;;;;;;;;5033311;28;2140;-40
2023/01/21 00:20:34;;;;;;;;;;;;;;;;;;5033378;28;1614;-38
2023/01/21 00:23:01;;;;;;;;;;;;;;;;;;5033191;28;2178;-38
2023/01/21 00:25:28;;;;;;;;;;;;;;;;;;5032965;28;1696;-40
2023/01/21 00:27:59;;;;;;;;;;;;;;;;;;5046919;28;2022;-38
2023/01/21 00:30:26;;;;;;;;;;;;;;;;;;5053015;28;2079;-39
2023/01/21 00:32:53;;;;;;;;;;;;;;;;;;5052845;28;1754;-39
2023/01/21 00:35:21;;;;;;;;;;;;;;;;;;5052991;28;1681;-39
2023/01/21 00:37:49;;;;;;;;;;;;;;;;;;5053045;28;1878;-42
2023/01/21 00:40:16;;;;;;;;;;;;;;;;;;5052867;28;1710;-40
2023/01/21 00:42:44;;;;;;;;;;;;;;;;;;5052711;28;1517;-41
2023/01/21 00:45:12;;;;;;;;;;;;;;;;;;5052201;28;1903;-39
2023/01/21 00:47:39;;;;;;;;;;;;;;;;;;5052336;28;2110;-40
2023/01/21 00:50:07;;;;;;;;;;;;;;;;;;5052661;28;2562;-39
2023/01/21 00:52:35;;;;;;;;;;;;;;;;;;5052470;28;1960;-39
2023/01/21 00:55:02;;;;;;;;;;;;;;;;;;5052612;28;1592;-38
2023/01/21 00:57:29;;;;;;;;;;;;;;;;;;5052416;28;2095;-39
2023/01/21 00:59:56;;;;;;;;;;;;;;;;;;5052309;28;1806;-38
2023/01/21 01:02:23;;;;;;;;;;;;;;;;;;5052415;28;1456;-37
2023/01/21 01:04:51;;;;;;;;;;;;;;;;;;5052589;28;1801;-39
2023/01/21 01:07:17;;;;;;;;;;;;;;;;;;5052592;28;2010;-39
2023/01/21 01:09:45;;;;;;;;;;;;;;;;;;5052456;28;1707;-39
2023/01/21 01:12:12;;;;;;;;;;;;;;;;;;5052117;28;1485;-39
2023/01/21 01:14:39;;;;;;;;;;;;;;;;;;5052006;28;1584;-38
2023/01/21 01:17:06;;;;;;;;;;;;;;;;;;5051822;28;1982;-37
2023/01/21 01:19:33;;;;;;;;;;;;;;;;;;5051891;28;1702;-39
2023/01/21 01:22:00;;;;;;;;;;;;;;;;;;5052053;28;1538;-38
2023/01/21 01:24:27;;;;;;;;;;;;;;;;;;5051810;28;2060;-39
2023/01/21 01:26:54;;;;;;;;;;;;;;;;;;5051843;28;2274;-39
2023/01/21 01:29:22;;;;;;;;;;;;;;;;;;5052168;28;1719;-40
2023/01/21 01:31:49;;;;;;;;;;;;;;;;;;5050292;28;2314;-40
2023/01/21 01:34:16;;;;;;;;;;;;;;;;;;5051855;28;2157;-38
2023/01/21 01:36:43;;;;;;;;;;;;;;;;;;5051763;28;1793;-39
2023/01/21 01:39:10;;;;;;;;;;;;;;;;;;5051886;28;2106;-39
2023/01/21 01:41:37;;;;;;;;;;;;;;;;;;5051353;28;1502;-40
2023/01/21 01:44:24;;;;;;;;;;;;;;;;;;5051723;28;2060;-38
2023/01/21 01:46:53;;;;;;;;;;;;;;;;;;5051859;28;1902;-39
2023/01/21 01:49:21;;;;;;;;;;;;;;;;;;5051622;28;2252;-39
2023/01/21 01:51:49;;;;;;;;;;;;;;;;;;5051537;28;2017;-42
2023/01/21 01:54:19;;;;;;;;;;;;;;;;;;5051140;28;1783;-38
2023/01/21 01:56:47;;;;;;;;;;;;;;;;;;5050872;28;2007;-39
2023/01/21 01:59:14;;;;;;;;;;;;;;;;;;5051611;28;1784;-38
2023/01/21 02:01:42;;;;;;;;;;;;;;;;;;5051372;28;2187;-40
2023/01/21 02:04:13;;;;;;;;;;;;;;;;;;5051513;28;1534;-42
2023/01/21 02:06:41;;;;;;;;;;;;;;;;;;5051333;28;2095;-41
2023/01/21 02:09:08;;;;;;;;;;;;;;;;;;5051387;28;1975;-41
2023/01/21 02:11:36;;;;;;;;;;;;;;;;;;5050981;28;2119;-40
2023/01/21 02:14:03;;;;;;;;;;;;;;;;;;5051206;28;1959;-40
2023/01/21 02:16:50;;;;;;;;;;;;;;;;;;5051263;28;1468;-40
2023/01/21 02:19:35;;;;;;;;;;;;;;;;;;5051118;28;1497;-40
2023/01/21 02:22:26;;;;;;;;;;;;;;;;;;5050795;28;1918;-41
2023/01/21 02:25:12;;;;;;;;;;;;;;;;;;5051192;28;1896;-39
2023/01/21 02:27:39;;;;;;;;;;;;;;;;;;5050944;28;1899;-41
2023/01/21 02:30:24;;;;;;;;;;;;;;;;;;5051022;28;1694;-39
2023/01/21 02:32:58;;;;;;;;;;;;;;;;;;5050819;28;1795;-39
2023/01/21 02:35:25;;;;;;;;;;;;;;;;;;5051217;28;2001;-39
2023/01/21 02:37:59;;;;;;;;;;;;;;;;;;5050822;28;1651;-41
2023/01/21 02:40:26;;;;;;;;;;;;;;;;;;5051076;28;2207;-39
2023/01/21 02:42:53;;;;;;;;;;;;;;;;;;5050839;28;1587;-39
2023/01/21 02:45:20;;;;;;;;;;;;;;;;;;5050902;28;1646;-39
2023/01/21 02:48:06;;;;;;;;;;;;;;;;;;5050923;28;1979;-41
2023/01/21 02:50:53;;;;;;;;;;;;;;;;;;5046497;28;1848;-41
2023/01/21 02:53:21;;;;;;;;;;;;;;;;;;5030944;28;1637;-40
2023/01/21 02:55:48;;;;;;;;;;;;;;;;;;5030778;28;1729;-41
2023/01/21 02:58:17;;;;;;;;;;;;;;;;;;5030877;28;1701;-40
2023/01/21 03:00:56;;;;;;;;;;;;;;;;;;5040124;28;2227;-38
2023/01/21 03:03:26;;;;;;;;;;;;;;;;;;5050621;28;1629;-40
2023/01/21 03:06:19;;;;;;;;;;;;;;;;;;5050601;28;1995;-39
2023/01/21 03:09:08;;;;;;;;;;;;;;;;;;5051328;28;1907;-39
2023/01/21 03:11:36;;;;;;;;;;;;;;;;;;5054477;28;1539;-40
2023/01/21 03:17:15;;;;;;;;;;;;;;;;;;5054586;28;1554;-40
2023/01/21 03:19:51;;;;;;;;;;;;;;;;;;5054621;28;1748;-43
2023/01/21 03:22:26;;;;;;;;;;;;;;;;;;5054133;28;2026;-42
2023/01/21 03:24:55;;;;;;;;;;;;;;;;;;5054249;28;1891;-42
2023/01/21 03:27:25;;;;;;;;;;;;;;;;;;5042346;28;2477;-39
2023/01/21 03:29:57;;;;;;;;;;;;;;;;;;5054144;28;1423;-39
2023/01/21 03:32:26;;;;;;;;;;;;;;;;;;5053939;28;2103;-39
2023/01/21 03:34:54;;;;;;;;;;;;;;;;;;5054266;28;1712;-41
2023/01/21 03:37:27;;;;;;;;;;;;;;;;;;5054110;28;1599;-43
2023/01/21 03:39:58;;;;;;;;;;;;;;;;;;5053859;28;1602;-41
2023/01/21 03:42:26;;;;;;;;;;;;;;;;;;5053806;28;1478;-39
2023/01/21 03:44:53;;;;;;;;;;;;;;;;;;5053900;28;1804;-44
2023/01/21 03:47:20;;;;;;;;;;;;;;;;;;5053855;28;1975;-41
2023/01/21 03:49:50;;;;;;;;;;;;;;;;;;5053768;28;1723;-43
2023/01/21 03:52:18;;;;;;;;;;;;;;;;;;5053858;28;1985;-40
2023/01/21 03:54:46;;;;;;;;;;;;;;;;;;5053888;28;1694;-40
2023/01/21 03:57:13;;;;;;;;;;;;;;;;;;5053523;28;2005;-47
2023/01/21 03:59:40;;;;;;;;;;;;;;;;;;5053588;28;1335;-41
2023/01/21 04:02:07;;;;;;;;;;;;;;;;;;5053677;28;2082;-40
2023/01/21 04:04:34;;;;;;;;;;;;;;;;;;5053854;28;1902;-40
2023/01/21 04:07:01;;;;;;;;;;;;;;;;;;5053885;28;1476;-41
2023/01/21 04:09:28;;;;;;;;;;;;;;;;;;5053315;28;1969;-39
2023/01/21 04:11:57;;;;;;;;;;;;;;;;;;5053575;28;1313;-40
2023/01/21 04:14:24;;;;;;;;;;;;;;;;;;5053425;28;1871;-41
2023/01/21 04:16:52;;;;;;;;;;;;;;;;;;5053479;28;2122;-38
2023/01/21 04:19:19;;;;;;;;;;;;;;;;;;5052643;28;1461;-42
2023/01/21 04:21:46;;;;;;;;;;;;;;;;;;5053450;28;1825;-39
2023/01/21 04:24:13;;;;;;;;;;;;;;;;;;5053301;28;1987;-40
2023/01/21 04:26:40;;;;;;;;;;;;;;;;;;5052484;28;2024;-40
2023/01/21 04:29:07;;;;;;;;;;;;;;;;;;5053115;28;1906;-40
2023/01/21 04:31:35;;;;;;;;;;;;;;;;;;5053238;28;1384;-40
2023/01/21 04:34:02;;;;;;;;;;;;;;;;;;5051958;28;2147;-40
2023/01/21 04:36:29;;;;;;;;;;;;;;;;;;5051960;28;1583;-40
2023/01/21 04:38:56;;;;;;;;;;;;;;;;;;5053084;28;1990;-40
2023/01/21 04:41:24;;;;;;;;;;;;;;;;;;5052897;28;2058;-40
2023/01/21 04:43:51;;;;;;;;;;;;;;;;;;5052808;28;1524;-41
2023/01/21 04:46:18;;;;;;;;;;;;;;;;;;5052802;28;1856;-41
2023/01/21 04:48:45;;;;;;;;;;;;;;;;;;5052901;28;1976;-40
2023/01/21 04:51:13;;;;;;;;;;;;;;;;;;5052691;28;1886;-40
2023/01/21 04:53:40;;;;;;;;;;;;;;;;;;5052670;28;1765;-45
2023/01/21 04:56:07;;;;;;;;;;;;;;;;;;5052851;28;2061;-39
2023/01/21 04:58:34;;;;;;;;;;;;;;;;;;5052882;28;1935;-40
2023/01/21 05:01:01;;;;;;;;;;;;;;;;;;5052692;28;1641;-39
2023/01/21 05:03:28;;;;;;;;;;;;;;;;;;5052711;28;2047;-39
2023/01/21 05:05:56;;;;;;;;;;;;;;;;;;5052458;28;2305;-40
2023/01/21 05:08:23;;;;;;;;;;;;;;;;;;5052216;28;1957;-40
2023/01/21 05:10:50;;;;;;;;;;;;;;;;;;5052373;28;1860;-40
2023/01/21 05:13:17;;;;;;;;;;;;;;;;;;5050774;28;2408;-42
2023/01/21 05:15:44;;;;;;;;;;;;;;;;;;5052210;28;1499;-41
2023/01/21 05:18:12;;;;;;;;;;;;;;;;;;5052000;28;2209;-41
2023/01/21 05:20:39;;;;;;;;;;;;;;;;;;5042154;28;1528;-41
2023/01/21 05:23:06;;;;;;;;;;;;;;;;;;5032336;28;1619;-40
2023/01/21 05:25:33;;;;;;;;;;;;;;;;;;5032192;28;1692;-40
2023/01/21 05:28:00;;;;;;;;;;;;;;;;;;5046515;28;1919;-40
2023/01/21 05:30:28;;;;;;;;;;;;;;;;;;5051024;28;1601;-41
2023/01/21 05:32:55;;;;;;;;;;;;;;;;;;5051526;28;2068;-40
2023/01/21 05:35:22;;;;;;;;;;;;;;;;;;5051731;28;1569;-40
2023/01/21 05:37:52;;;;;;;;;;;;;;;;;;5052126;28;1940;-40
2023/01/21 05:40:19;;;;;;;;;;;;;;;;;;5051864;28;1850;-45
2023/01/21 05:42:46;;;;;;;;;;;;;;;;;;5052050;28;1846;-40
2023/01/21 05:45:14;;;;;;;;;;;;;;;;;;5051713;28;1843;-39
2023/01/21 05:47:41;;;;;;;;;;;;;;;;;;5051679;28;2103;-39
2023/01/21 05:50:09;;;;;;;;;;;;;;;;;;5051906;28;1910;-40
2023/01/21 05:52:36;;;;;;;;;;;;;;;;;;5051798;28;1625;-41
2023/01/21 05:55:04;;;;;;;;;;;;;;;;;;5050062;28;1706;-38
2023/01/21 05:57:34;;;;;;;;;;;;;;;;;;5051539;28;1674;-40
2023/01/21 06:00:01;;;;;;;;;;;;;;;;;;5051227;28;1663;-41
2023/01/21 06:02:30;;;;;;;;;;;;;;;;;;5051231;28;2011;-41
2023/01/21 06:04:57;;;;;;;;;;;;;;;;;;5051512;28;1524;-41
2023/01/21 06:07:24;;;;;;;;;;;;;;;;;;5051047;28;1586;-39
2023/01/21 06:09:51;;;;;;;;;;;;;;;;;;5051133;28;1915;-41
2023/01/21 06:12:18;;;;;;;;;;;;;;;;;;5051224;28;1291;-39
2023/01/21 06:14:46;;;;;;;;;;;;;;;;;;5050891;28;1630;-41
2023/01/21 06:17:13;;;;;;;;;;;;;;;;;;5051272;28;1941;-40
2023/01/21 06:19:40;;;;;;;;;;;;;;;;;;5051300;28;1280;-41
2023/01/21 06:22:12;;;;;;;;;;;;;;;;;;5051191;28;1594;-41
2023/01/21 06:24:40;;;;;;;;;;;;;;;;;;5051316;28;1887;-41
2023/01/21 06:27:07;;;;;;;;;;;;;;;;;;5050781;28;1767;-40
2023/01/21 06:29:34;;;;;;;;;;;;;;;;;;5050751;28;1914;-39
2023/01/21 06:32:01;;;;;;;;;;;;;;;;;;5050923;28;1945;-38
2023/01/21 06:34:28;;;;;;;;;;;;;;;;;;5051019;28;2135;-39
2023/01/21 06:36:55;;;;;;;;;;;;;;;;;;5050810;28;1484;-41
2023/01/21 06:39:23;;;;;;;;;;;;;;;;;;5050899;28;1839;-41
2023/01/21 06:41:50;;;;;;;;;;;;;;;;;;5050261;28;2195;-40
2023/01/21 06:44:21;;;;;;;;;;;;;;;;;;5050773;28;2180;-42
2023/01/21 06:46:48;;;;;;;;;;;;;;;;;;5050728;28;1894;-40
2023/01/21 06:49:26;;;;;;;;;;;;;;;;;;5050704;28;1911;-41
2023/01/21 06:51:55;;;;;;;;;;;;;;;;;;5050557;28;1745;-41
2023/01/21 06:54:22;;;;;;;;;;;;;;;;;;5050712;28;2032;-41
2023/01/21 06:56:49;;;;;;;;;;;;;;;;;;5050564;28;2163;-41
2023/01/21 06:59:16;;;;;;;;;;;;;;;;;;5050718;28;2127;-42
2023/01/21 07:01:43;;;;;;;;;;;;;;;;;;5050857;28;1640;-40
2023/01/21 07:04:11;;;;;;;;;;;;;;;;;;5050534;28;1989;-41
2023/01/21 07:06:38;;;;;;;;;;;;;;;;;;5050678;28;1878;-39
2023/01/21 07:09:06;;;;;;;;;;;;;;;;;;5050471;28;1894;-38
2023/01/21 07:11:33;;;;;;;;;;;;;;;;;;5032808;28;1684;-39
2023/01/21 07:14:00;;;;;;;;;;;;;;;;;;5050532;28;1796;-39
2023/01/21 07:16:27;;;;;;;;;;;;;;;;;;5050510;28;1723;-42
2023/01/21 07:18:55;;;;;;;;;;;;;;;;;;5050107;28;1855;-39
2023/01/21 07:21:23;;;;;;;;;;;;;;;;;;5050241;28;1507;-38
2023/01/21 07:23:51;;;;;;;;;;;;;;;;;;5050611;28;1679;-39
2023/01/21 07:26:18;;;;;;;;;;;;;;;;;;5049562;28;1103;-39
2023/01/21 07:28:46;;;;;;;;;;;;;;;;;;5030562;28;1907;-39
2023/01/21 07:31:13;;;;;;;;;;;;;;;;;;5030684;28;1918;-40
2023/01/21 07:33:40;;;;;;;;;;;;;;;;;;5030272;28;1761;-38
2023/01/21 07:36:07;;;;;;;;;;;;;;;;;;5030358;28;1640;-41
2023/01/21 07:38:35;;;;;;;;;;;;;;;;;;5030207;28;1431;-38
2023/01/21 07:41:02;;;;;;;;;;;;;;;;;;5030497;28;1988;-39
2023/01/21 07:43:29;;;;;;;;;;;;;;;;;;5030273;28;1891;-39
2023/01/21 07:45:57;;;;;;;;;;;;;;;;;;5030591;28;2092;-39
2023/01/21 07:48:26;;;;;;;;;;;;;;;;;;5030030;28;2140;-40
2023/01/21 07:50:55;;;;;;;;;;;;;;;;;;5030017;28;1312;-41
2023/01/21 07:53:23;;;;;;;;;;;;;;;;;;5030096;28;1998;-39
2023/01/21 07:55:50;;;;;;;;;;;;;;;;;;5033486;28;1876;-39
2023/01/21 07:58:17;;;;;;;;;;;;;;;;;;5033700;28;1847;-40
2023/01/21 08:00:45;;;;;;;;;;;;;;;;;;5033673;28;1852;-40
2023/01/21 08:03:12;;;;;;;;;;;;;;;;;;5033704;28;2612;-39
2023/01/21 08:05:39;;;;;;;;;;;;;;;;;;5028197;28;9746;-39
2023/01/21 08:08:06;;;;;;;;;;;;;;;;;;5033613;28;1342;-40
2023/01/21 08:10:33;;;;;;;;;;;;;;;;;;5033448;28;1916;-39
2023/01/21 08:13:02;;;;;;;;;;;;;;;;;;5033384;28;2143;-41
2023/01/21 08:15:29;;;;;;;;;;;;;;;;;;5033420;28;1864;-41
2023/01/21 08:17:56;;;;;;;;;;;;;;;;;;5033132;28;2070;-42
2023/01/21 08:20:23;;;;;;;;;;;;;;;;;;5033277;28;2068;-41
2023/01/21 08:22:51;;;;;;;;;;;;;;;;;;5033429;28;1854;-40
2023/01/21 08:25:18;;;;;;;;;;;;;;;;;;5033427;28;2014;-40
2023/01/21 08:27:45;;;;;;;;;;;;;;;;;;5045676;28;1745;-41
2023/01/21 08:30:12;;;;;;;;;;;;;;;;;;5052992;28;2118;-40
2023/01/21 08:32:44;;;;;;;;;;;;;;;;;;5052860;28;1845;-42
2023/01/21 08:35:11;;;;;;;;;;;;;;;;;;5053141;28;2235;-39
2023/01/21 08:37:41;;;;;;;;;;;;;;;;;;5052857;28;1895;-39
2023/01/21 08:40:09;;;;;;;;;;;;;;;;;;5052852;28;1956;-39
2023/01/21 08:42:36;;;;;;;;;;;;;;;;;;5052698;28;1807;-39
2023/01/21 08:45:04;;;;;;;;;;;;;;;;;;5052773;28;1959;-40
2023/01/21 08:47:31;;;;;;;;;;;;;;;;;;5052851;28;1538;-38
2023/01/21 08:49:58;;;;;;;;;;;;;;;;;;5052310;28;2103;-41
2023/01/21 08:52:25;;;;;;;;;;;;;;;;;;5052529;28;1693;-39
2023/01/21 08:54:52;;;;;;;;;;;;;;;;;;5052569;28;1491;-39
2023/01/21 08:57:20;;;;;;;;;;;;;;;;;;5052759;28;1567;-39
2023/01/21 08:59:47;;;;;;;;;;;;;;;;;;5052704;28;1699;-39
2023/01/21 09:02:14;;;;;;;;;;;;;;;;;;5052375;28;2344;-42
2023/01/21 09:04:41;;;;;;;;;;;;;;;;;;5052261;28;1695;-41
2023/01/21 09:07:08;;;;;;;;;;;;;;;;;;5052221;28;2327;-40
2023/01/21 09:09:35;;;;;;;;;;;;;;;;;;5052105;28;1909;-42
2023/01/21 09:12:06;;;;;;;;;;;;;;;;;;5052453;28;1841;-40
2023/01/21 09:14:33;;;;;;;;;;;;;;;;;;5051996;28;2234;-40
2023/01/21 09:17:00;;;;;;;;;;;;;;;;;;5052288;28;1899;-39
2023/01/21 09:19:28;;;;;;;;;;;;;;;;;;5052181;28;2201;-38
2023/01/21 09:21:55;;;;;;;;;;;;;;;;;;5051992;28;2010;-40
2023/01/21 09:24:23;;;;;;;;;;;;;;;;;;5052160;28;1861;-42
2023/01/21 09:26:51;;;;;;;;;;;;;;;;;;5052103;28;1972;-40
2023/01/21 09:29:18;;;;;;;;;;;;;;;;;;5051875;28;2019;-39
2023/01/21 09:31:45;;;;;;;;;;;;;;;;;;5052094;28;1731;-39
2023/01/21 09:34:12;;;;;;;;;;;;;;;;;;5043135;28;2070;-41
2023/01/21 09:36:42;;;;;;;;;;;;;;;;;;5031709;28;1898;-41
2023/01/21 09:39:09;;;;;;;;;;;;;;;;;;5031969;28;2154;-39
2023/01/21 09:41:45;;;;;;;;;;;;;;;;;;5031886;28;1408;-40
2023/01/21 09:44:15;;;;;;;;;;;;;;;;;;5031842;28;1578;-37
2023/01/21 09:47:00;;;;;;;;;;;;;;;;;;5030493;28;1834;-41
2023/01/21 09:49:33;;;;;;;;;;;;;;;;;;5031796;28;1973;-38
2023/01/21 09:52:19;;;;;;;;;;;;;;;;;;5037754;28;1839;-39
2023/01/21 09:54:47;;;;;;;;;;;;;;;;;;5051225;28;1999;-40
2023/01/21 09:57:14;;;;;;;;;;;;;;;;;;5051637;28;1958;-39
2023/01/21 09:59:59;;;;;;;;;;;;;;;;;;5051441;28;1677;-40
2023/01/21 10:03:00;;;;;;;;;;;;;;;;;;5050743;28;2039;-41
2023/01/21 10:05:42;;;;;;;;;;;;;;;;;;5043741;28;1461;-39
2023/01/21 10:08:09;;;;;;;;;;;;;;;;;;5050683;28;1762;-41
2023/01/21 10:10:36;;;;;;;;;;;;;;;;;;5051345;28;2177;-40
2023/01/21 10:13:19;;;;;;;;;;;;;;;;;;5051172;28;2036;-41
2023/01/21 10:16:03;;;;;;;;;;;;;;;;;;5051114;28;2318;-42
2023/01/21 10:18:33;;;;;;;;;;;;;;;;;;5050333;28;1820;-41
2023/01/21 10:21:09;;;;;;;;;;;;;;;;;;5033553;28;2164;-41
2023/01/21 10:23:39;;;;;;;;;;;;;;;;;;5050970;28;1847;-40
2023/01/21 10:26:12;;;;;;;;;;;;;;;;;;5050973;28;1466;-40
2023/01/21 10:28:41;;;;;;;;;;;;;;;;;;5050968;28;1787;-39
2023/01/21 10:31:23;;;;;;;;;;;;;;;;;;5032960;28;2432;-41
2023/01/21 10:33:51;;;;;;;;;;;;;;;;;;5050850;28;1713;-40
2023/01/21 10:36:37;;;;;;;;;;;;;;;;;;5051037;28;1334;-42
2023/01/21 10:39:04;;;;;;;;;;;;;;;;;;5050797;28;1732;-41
2023/01/21 10:41:55;;;;;;;;;;;;;;;;;;5050294;28;1585;-40
2023/01/21 10:44:46;;;;;;;;;;;;;;;;;;5051012;28;1831;-41
2023/01/21 10:47:32;;;;;;;;;;;;;;;;;;5049785;28;2056;-40
2023/01/21 10:50:03;;;;;;;;;;;;;;;;;;5050885;28;1906;-41
2023/01/21 10:52:34;;;;;;;;;;;;;;;;;;5050952;28;1853;-38
2023/01/21 10:55:20;;;;;;;;;;;;;;;;;;5049329;28;1627;-36
2023/01/21 10:57:57;;;;;;;;;;;;;;;;;;5033305;28;1754;-37
2023/01/21 11:00:32;;;;;;;;;;;;;;;;;;5034474;28;1841;-38
2023/01/21 11:03:12;;;;;;;;;;;;;;;;;;5030534;28;1967;-38
2023/01/21 11:05:40;;;;;;;;;;;;;;;;;;5045223;28;1838;-41
2023/01/21 11:08:12;;;;;;;;;;;;;;;;;;5048376;28;2101;-39
2023/01/21 11:10:40;;;;;;;;;;;;;;;;;;5031927;28;1979;-39
2023/01/21 11:13:10;;;;;;;;;;;;;;;;;;5049722;28;2023;-40
2023/01/21 11:15:38;;;;;;;;;;;;;;;;;;5032080;28;2186;-41
2023/01/21 11:18:24;;;;;;;;;;;;;;;;;;5050010;28;1707;-39
2023/01/21 11:20:54;;;;;;;;;;;;;;;;;;5049384;28;1235;-39
2023/01/21 11:23:31;;;;;;;;;;;;;;;;;;5031703;28;1650;-40
2023/01/21 11:26:03;;;;;;;;;;;;;;;;;;5049507;28;1972;-41
2023/01/21 11:28:30;;;;;;;;;;;;;;;;;;5032614;28;1862;-42
2023/01/21 11:31:11;;;;;;;;;;;;;;;;;;5034456;28;1971;-42
2023/01/21 11:33:40;;;;;;;;;;;;;;;;;;5033237;28;2262;-42
2023/01/21 11:36:17;;;;;;;;;;;;;;;;;;5033786;28;1776;-40
2023/01/21 11:38:57;;;;;;;;;;;;;;;;;;5015350;28;1561;-42
2023/01/21 11:41:24;;;;;;;;;;;;;;;;;;5033936;28;2118;-42
2023/01/21 11:43:54;;;;;;;;;;;;;;;;;;5033048;28;2191;-41
2023/01/21 11:46:25;;;;;;;;;;;;;;;;;;5033172;28;1870;-42
2023/01/21 11:48:53;;;;;;;;;;;;;;;;;;5033334;28;2159;-40
2023/01/21 11:51:20;;;;;;;;;;;;;;;;;;5033576;28;2019;-42
2023/01/21 11:53:48;;;;;;;;;;;;;;;;;;5033115;28;1899;-42
2023/01/21 11:56:19;;;;;;;;;;;;;;;;;;5044397;28;2374;-42
2023/01/21 11:58:46;;;;;;;;;;;;;;;;;;5053476;28;1947;-42
2023/01/21 12:01:19;;;;;;;;;;;;;;;;;;5043877;28;1414;-42
2023/01/21 12:03:49;;;;;;;;;;;;;;;;;;5033170;28;1969;-43
2023/01/21 12:06:20;;;;;;;;;;;;;;;;;;5033175;28;1677;-41
2023/01/21 12:08:48;;;;;;;;;;;;;;;;;;5031317;28;1783;-42
2023/01/21 12:11:21;;;;;;;;;;;;;;;;;;5052862;28;1910;-40
2023/01/21 12:14:07;;;;;;;;;;;;;;;;;;5053240;28;1372;-40
2023/01/21 12:16:36;;;;;;;;;;;;;;;;;;5052636;28;1972;-39
2023/01/21 12:19:09;;;;;;;;;;;;;;;;;;5053227;28;1505;-40
2023/01/21 12:21:36;;;;;;;;;;;;;;;;;;5053241;28;1589;-40
2023/01/21 12:24:03;;;;;;;;;;;;;;;;;;5053248;28;1416;-40
2023/01/21 12:26:30;;;;;;;;;;;;;;;;;;5050991;28;2227;-40
2023/01/21 12:29:09;;;;;;;;;;;;;;;;;;5033637;28;1967;-42
2023/01/21 12:31:47;;;;;;;;;;;;;;;;;;5032813;28;1899;-41
2023/01/21 12:34:21;;;;;;;;;;;;;;;;;;5033315;28;1462;-40
2023/01/21 12:36:51;;;;;;;;;;;;;;;;;;5032993;28;1673;-43
2023/01/21 12:39:31;;;;;;;;;;;;;;;;;;5032988;28;1821;-40
2023/01/21 12:42:05;;;;;;;;;;;;;;;;;;5032579;28;1960;-40
2023/01/21 12:44:39;;;;;;;;;;;;;;;;;;5032883;28;1936;-40
2023/01/21 12:47:18;;;;;;;;;;;;;;;;;;5032990;28;2075;-41
2023/01/21 12:49:48;;;;;;;;;;;;;;;;;;5032721;28;1971;-43
2023/01/21 12:52:29;;;;;;;;;;;;;;;;;;5032830;28;1779;-44
2023/01/21 12:55:16;;;;;;;;;;;;;;;;;;5032726;28;2196;-44
2023/01/21 12:58:10;;;;;;;;;;;;;;;;;;5031827;28;1972;-42
2023/01/21 13:00:40;;;;;;;;;;;;;;;;;;5029371;28;2140;-41
2023/01/21 13:03:37;;;;;;;;;;;;;;;;;;5032387;28;1992;-40
2023/01/21 13:06:11;;;;;;;;;;;;;;;;;;5015738;28;1903;-41
2023/01/21 13:08:54;;;;;;;;;;;;;;;;;;5032410;28;1839;-39
2023/01/21 13:11:25;;;;;;;;;;;;;;;;;;5032026;28;1983;-41
2023/01/21 13:14:16;;;;;;;;;;;;;;;;;;5032374;28;1307;-42
2023/01/21 13:16:45;;;;;;;;;;;;;;;;;;5032057;28;1850;-42
2023/01/21 13:19:13;;;;;;;;;;;;;;;;;;5032130;28;1499;-42
2023/01/21 13:21:43;;;;;;;;;;;;;;;;;;5031920;28;1843;-42
2023/01/21 13:24:28;;;;;;;;;;;;;;;;;;5032126;28;1168;-42
2023/01/21 13:26:58;;;;;;;;;;;;;;;;;;5037614;28;2092;-42
2023/01/21 13:29:49;;;;;;;;;;;;;;;;;;5052091;28;1822;-41
2023/01/21 13:32:35;;;;;;;;;;;;;;;;;;5051510;28;1779;-44
2023/01/21 13:35:22;;;;;;;;;;;;;;;;;;5051857;28;2165;-43
2023/01/21 13:38:09;;;;;;;;;;;;;;;;;;5051842;28;1579;-43
2023/01/21 13:40:37;;;;;;;;;;;;;;;;;;5021471;28;2073;-42
2023/01/21 13:43:21;;;;;;;;;;;;;;;;;;5051720;28;1978;-44
2023/01/21 13:45:58;;;;;;;;;;;;;;;;;;5051705;28;1486;-42
2023/01/21 13:48:28;;;;;;;;;;;;;;;;;;5051223;28;1700;-44
2023/01/21 13:51:04;;;;;;;;;;;;;;;;;;5051238;28;1983;-42
2023/01/21 13:53:37;;;;;;;;;;;;;;;;;;5050861;28;2044;-42
2023/01/21 13:56:14;;;;;;;;;;;;;;;;;;5033633;28;1568;-41
2023/01/21 13:59:14;;;;;;;;;;;;;;;;;;5034015;28;2002;-42
2023/01/21 14:01:44;;;;;;;;;;;;;;;;;;5007750;28;1539;-41
2023/01/21 14:04:32;;;;;;;;;;;;;;;;;;5051529;28;1245;-42
2023/01/21 14:07:02;;;;;;;;;;;;;;;;;;5051189;28;1850;-41
2023/01/21 14:09:44;;;;;;;;;;;;;;;;;;5051046;28;1329;-41
2023/01/21 14:12:19;;;;;;;;;;;;;;;;;;5051157;28;1928;-40
2023/01/21 14:15:05;;;;;;;;;;;;;;;;;;5033198;28;1661;-44
2023/01/21 14:17:50;;;;;;;;;;;;;;;;;;5051342;28;1917;-44
2023/01/21 14:20:28;;;;;;;;;;;;;;;;;;5051045;28;2030;-42
2023/01/21 14:23:02;;;;;;;;;;;;;;;;;;5051073;28;1248;-42
2023/01/21 14:25:32;;;;;;;;;;;;;;;;;;5033222;28;1912;-40
2023/01/21 14:28:02;;;;;;;;;;;;;;;;;;5036374;28;1539;-43
2023/01/21 14:30:36;;;;;;;;;;;;;;;;;;5031052;28;1908;-40
2023/01/21 14:33:08;;;;;;;;;;;;;;;;;;5030900;28;2010;-43
2023/01/21 14:35:36;;;;;;;;;;;;;;;;;;5030690;28;1484;-40
2023/01/21 14:38:22;;;;;;;;;;;;;;;;;;5013404;28;2212;-42
2023/01/21 14:40:50;;;;;;;;;;;;;;;;;;5012739;28;1438;-41
2023/01/21 14:43:39;;;;;;;;;;;;;;;;;;5031300;28;2319;-42
2023/01/21 14:46:29;;;;;;;;;;;;;;;;;;5022010;28;1967;-40
2023/01/21 14:49:06;;;;;;;;;;;;;;;;;;5031091;28;1464;-44
2023/01/21 14:51:34;;;;;;;;;;;;;;;;;;5030898;28;2105;-43
2023/01/21 14:54:13;;;;;;;;;;;;;;;;;;5030625;28;1442;-44
2023/01/21 14:56:50;;;;;;;;;;;;;;;;;;5013444;28;1705;-40
2023/01/21 14:59:32;;;;;;;;;;;;;;;;;;5030722;28;1685;-43
2023/01/21 15:02:00;;;;;;;;;;;;;;;;;;5030742;28;1854;-41
2023/01/21 15:04:29;;;;;;;;;;;;;;;;;;5033654;28;1771;-41
2023/01/21 15:07:07;;;;;;;;;;;;;;;;;;5034805;28;2127;-41
2023/01/21 15:09:41;;;;;;;;;;;;;;;;;;5034902;28;1995;-42
2023/01/21 15:12:19;;;;;;;;;;;;;;;;;;5034581;28;1908;-42
2023/01/21 15:14:47;;;;;;;;;;;;;;;;;;5034553;28;1839;-41
2023/01/21 15:17:35;;;;;;;;;;;;;;;;;;5034867;28;1996;-41
2023/01/21 15:20:22;;;;;;;;;;;;;;;;;;5034489;28;1757;-41
2023/01/21 15:23:02;;;;;;;;;;;;;;;;;;5016888;28;1893;-41
2023/01/21 15:25:30;;;;;;;;;;;;;;;;;;5034376;28;2102;-41
2023/01/21 15:28:37;;;;;;;;;;;;;;;;;;5048759;28;2030;-41
2023/01/21 15:31:06;;;;;;;;;;;;;;;;;;4972996;28;2062;-37
2023/01/21 15:34:00;;;;;;;;;;;;;;;;;;4973117;28;2073;-42
2023/01/21 15:36:33;;;;;;;;;;;;;;;;;;5025825;28;1503;-43
2023/01/21 15:39:02;;;;;;;;;;;;;;;;;;5054100;28;1851;-40
2023/01/21 15:41:38;;;;;;;;;;;;;;;;;;5054031;28;2462;-41
2023/01/21 15:44:11;;;;;;;;;;;;;;;;;;5053994;28;1885;-41
2023/01/21 15:46:47;;;;;;;;;;;;;;;;;;5054062;28;1807;-41
2023/01/21 15:49:26;;;;;;;;;;;;;;;;;;5054164;28;1714;-40
2023/01/21 15:51:57;;;;;;;;;;;;;;;;;;5053830;28;1981;-40
2023/01/21 15:54:42;;;;;;;;;;;;;;;;;;5054050;28;2041;-42
2023/01/21 15:57:22;;;;;;;;;;;;;;;;;;5053988;28;1613;-40
2023/01/21 16:00:07;;;;;;;;;;;;;;;;;;5053832;28;1790;-42
2023/01/21 16:03:01;;;;;;;;;;;;;;;;;;5053562;28;1897;-42
2023/01/21 16:05:47;;;;;;;;;;;;;;;;;;5023476;28;1866;-40
2023/01/21 16:08:21;;;;;;;;;;;;;;;;;;5053860;28;1855;-42
2023/01/21 16:10:51;;;;;;;;;;;;;;;;;;5053410;28;1904;-41
2023/01/21 16:13:32;;;;;;;;;;;;;;;;;;5053663;28;1961;-40
2023/01/21 16:15:59;;;;;;;;;;;;;;;;;;5051335;28;1876;-43
2023/01/21 16:18:29;;;;;;;;;;;;;;;;;;5053504;28;1899;-41
2023/01/21 16:20:57;;;;;;;;;;;;;;;;;;5053287;28;1926;-41
2023/01/21 16:23:26;;;;;;;;;;;;;;;;;;5053355;28;1862;-41
2023/01/21 16:25:53;;;;;;;;;;;;;;;;;;5053103;28;2064;-41
2023/01/21 16:28:20;;;;;;;;;;;;;;;;;;5053228;28;2158;-41
2023/01/21 16:31:06;;;;;;;;;;;;;;;;;;5053175;28;2112;-41
2023/01/21 16:33:37;;;;;;;;;;;;;;;;;;5053029;28;1874;-43
2023/01/21 16:36:13;;;;;;;;;;;;;;;;;;5052988;28;1853;-41
2023/01/21 16:38:52;;;;;;;;;;;;;;;;;;5052789;28;1596;-42
2023/01/21 16:41:27;;;;;;;;;;;;;;;;;;5051700;28;2041;-46
2023/01/21 16:44:04;;;;;;;;;;;;;;;;;;5052795;28;1749;-42
2023/01/21 16:46:38;;;;;;;;;;;;;;;;;;5052847;28;2120;-43
2023/01/21 16:49:14;;;;;;;;;;;;;;;;;;5052679;28;2462;-41
2023/01/21 16:52:04;;;;;;;;;;;;;;;;;;5052219;28;1983;-42
2023/01/21 16:54:47;;;;;;;;;;;;;;;;;;5052633;28;1338;-41
2023/01/21 16:57:32;;;;;;;;;;;;;;;;;;5052657;28;1667;-41
2023/01/21 17:00:20;;;;;;;;;;;;;;;;;;5052656;28;2041;-40
2023/01/21 17:02:51;;;;;;;;;;;;;;;;;;5052498;28;1798;-42
2023/01/21 17:05:23;;;;;;;;;;;;;;;;;;5052462;28;1861;-40
2023/01/21 17:08:01;;;;;;;;;;;;;;;;;;5052336;28;1845;-40
2023/01/21 17:10:34;;;;;;;;;;;;;;;;;;5052671;28;2240;-41
2023/01/21 17:13:03;;;;;;;;;;;;;;;;;;5052179;28;1909;-39
2023/01/21 17:15:30;;;;;;;;;;;;;;;;;;5034697;28;1510;-40
2023/01/21 17:17:59;;;;;;;;;;;;;;;;;;5052468;28;1972;-41
2023/01/21 17:20:34;;;;;;;;;;;;;;;;;;5051968;28;1690;-42
2023/01/21 17:23:02;;;;;;;;;;;;;;;;;;5051976;28;1982;-41
2023/01/21 17:25:30;;;;;;;;;;;;;;;;;;5052092;28;2019;-41
2023/01/21 17:27:57;;;;;;;;;;;;;;;;;;5019655;28;1790;-41
2023/01/21 17:30:29;;;;;;;;;;;;;;;;;;5032307;28;1945;-39
2023/01/21 17:32:58;;;;;;;;;;;;;;;;;;5031928;28;2342;-41
2023/01/21 17:35:26;;;;;;;;;;;;;;;;;;5031974;28;1701;-41
2023/01/21 17:37:55;;;;;;;;;;;;;;;;;;5032088;28;2134;-41